Time;durP1;ratioP1;P1;durP2;ratioP2;P2;SDS_P1;SDS_P2;PMS_P1;PMS_P2;Temp;Humidity;BMP_temperature;BMP_pressure;BME280_temperature;BME280_humidity;BME280_pressure;Samples;Min_cycle;Max_cycle;Signal;HPM_P1;HPM_P2
2024/02/21 00:01:46;;;;;;;12.73;7.83;;;;;;;7.16;63.10;97216.13;5046340;28;20417;-66
2024/02/21 00:04:12;;;;;;;11.27;7.00;;;;;;;7.19;64.01;97213.47;5046869;28;20175;-65
2024/02/21 00:06:37;;;;;;;10.83;8.00;;;;;;;7.26;63.19;97211.59;5046805;28;20661;-68
2024/02/21 00:09:03;;;;;;;15.07;8.13;;;;;;;7.17;63.28;97212.63;5046775;28;20190;-68
2024/02/21 00:11:28;;;;;;;9.77;7.07;;;;;;;7.14;63.52;97204.00;5028518;28;20171;-69
2024/02/21 00:13:54;;;;;;;14.17;7.60;;;;;;;7.28;63.48;97199.38;5046902;28;20182;-68
2024/02/21 00:16:19;;;;;;;11.07;7.27;;;;;;;7.15;63.59;97197.88;5047051;28;20167;-68
2024/02/21 00:18:45;;;;;;;10.63;7.67;;;;;;;7.22;63.86;97197.72;5046676;28;20199;-68
2024/02/21 00:21:14;;;;;;;9.30;7.07;;;;;;;7.27;63.64;97202.88;5046465;28;20167;-68
2024/02/21 00:23:40;;;;;;;17.83;8.47;;;;;;;7.24;62.93;97197.72;5046641;28;20174;-68
2024/02/21 00:26:06;;;;;;;12.57;7.30;;;;;;;7.12;63.35;97190.09;5046788;28;20515;-67
2024/02/21 00:28:31;;;;;;;10.87;7.40;;;;;;;7.09;64.23;97198.00;5047108;28;20233;-67
2024/02/21 00:30:56;;;;;;;10.40;8.27;;;;;;;7.19;64.35;97195.19;5029355;28;20893;-67
2024/02/21 00:33:22;;;;;;;9.33;5.80;;;;;;;7.09;64.01;97188.41;5047242;28;20189;-67
2024/02/21 00:35:47;;;;;;;10.60;6.87;;;;;;;6.95;64.83;97186.03;5049886;28;20175;-67
2024/02/21 00:38:12;;;;;;;9.93;6.40;;;;;;;6.96;64.63;97187.75;5052459;28;20244;-70
2024/02/21 00:40:38;;;;;;;9.50;6.10;;;;;;;7.08;64.21;97193.66;5051096;28;20225;-69
2024/02/21 00:43:03;;;;;;;8.27;6.80;;;;;;;6.99;64.62;97195.53;5049026;28;20175;-69
2024/02/21 00:45:29;;;;;;;11.93;6.63;;;;;;;7.18;63.59;97189.97;5046563;28;20262;-68
2024/02/21 00:47:54;;;;;;;13.53;7.00;;;;;;;7.07;64.06;97198.00;5046171;28;20236;-69
2024/02/21 00:50:19;;;;;;;10.00;5.93;;;;;;;7.08;64.27;97196.25;5027810;28;20183;-68
2024/02/21 00:52:45;;;;;;;14.53;6.83;;;;;;;7.01;63.89;97198.09;5047680;28;20178;-68
2024/02/21 00:55:10;;;;;;;11.17;6.63;;;;;;;6.98;64.49;97188.59;5050218;28;20293;-68
2024/02/21 00:57:36;;;;;;;15.57;6.40;;;;;;;6.91;64.59;97193.94;5049885;28;20630;-68
2024/02/21 01:00:05;;;;;;;10.30;7.13;;;;;;;6.95;64.03;97183.44;5049781;28;20276;-66
2024/02/21 01:02:33;;;;;;;10.43;6.80;;;;;;;7.14;63.26;97181.34;5050412;28;20577;-69
2024/02/21 01:04:59;;;;;;;9.67;7.70;;;;;;;7.00;63.69;97173.75;5032291;28;20925;-68
2024/02/21 01:07:24;;;;;;;10.90;7.40;;;;;;;6.95;64.17;97173.00;5050280;28;20412;-69
2024/02/21 01:09:51;;;;;;;10.20;7.10;;;;;;;6.99;64.16;97172.06;5051047;28;20183;-69
2024/02/21 01:12:16;;;;;;;11.20;6.80;;;;;;;6.99;64.16;97161.63;5051173;28;20178;-68
2024/02/21 01:14:42;;;;;;;8.67;6.37;;;;;;;7.07;63.64;97158.88;5051072;28;20410;-68
2024/02/21 01:17:07;;;;;;;9.70;6.83;;;;;;;6.92;63.88;97152.19;5050643;28;20178;-68
2024/02/21 01:19:33;;;;;;;13.10;6.97;;;;;;;6.97;63.66;97158.16;5032989;28;21108;-70
2024/02/21 01:21:58;;;;;;;12.33;6.70;;;;;;;7.06;63.69;97158.88;5050526;28;20198;-68
2024/02/21 01:24:24;;;;;;;8.77;6.20;;;;;;;7.15;63.15;97146.53;5050376;28;20917;-68
2024/02/21 01:26:49;;;;;;;8.57;6.20;;;;;;;7.04;63.52;97148.50;5050881;28;20222;-68
2024/02/21 01:29:15;;;;;;;12.77;6.40;;;;;;;7.01;64.18;97148.53;5050389;28;20187;-68
2024/02/21 01:31:40;;;;;;;21.00;7.97;;;;;;;7.02;63.38;97138.97;5050735;28;20541;-68
2024/02/21 01:34:06;;;;;;;13.33;6.60;;;;;;;6.95;64.08;97139.06;5050598;28;20167;-68
2024/02/21 01:36:31;;;;;;;9.60;6.57;;;;;;;7.00;63.65;97132.00;5032362;28;20193;-67
2024/02/21 01:38:57;;;;;;;7.50;5.97;;;;;;;6.91;64.26;97132.19;5049914;28;20305;-68
2024/02/21 01:41:22;;;;;;;11.30;6.67;;;;;;;6.96;64.48;97129.47;5049396;28;20258;-69
2024/02/21 01:43:47;;;;;;;11.80;6.13;;;;;;;6.91;64.26;97134.78;5049781;28;20178;-68
2024/02/21 01:46:13;;;;;;;11.23;7.03;;;;;;;6.78;65.26;97128.06;5050651;28;20175;-68
2024/02/21 01:48:38;;;;;;;11.93;7.07;;;;;;;6.95;64.32;97120.81;5049816;28;20214;-67
2024/02/21 01:51:04;;;;;;;8.57;5.60;;;;;;;6.92;64.32;97123.47;5050508;28;20163;-66
2024/02/21 01:53:33;;;;;;;15.73;6.17;;;;;;;7.09;63.54;97111.88;5050191;28;20167;-67
2024/02/21 01:55:58;;;;;;;11.03;6.60;;;;;;;7.04;64.09;97109.34;5049995;28;20195;-67
2024/02/21 01:58:24;;;;;;;9.90;6.00;;;;;;;6.88;64.16;97110.50;5050066;28;20441;-69
2024/02/21 02:00:51;;;;;;;7.87;5.77;;;;;;;6.92;64.57;97107.81;5049837;28;20202;-67
2024/02/21 02:03:17;;;;;;;9.70;6.03;;;;;;;6.91;64.59;97110.44;5049844;28;20205;-67
2024/02/21 02:05:46;;;;;;;9.53;6.20;;;;;;;6.92;64.63;97094.78;5049509;28;20416;-67
2024/02/21 02:08:13;;;;;;;7.27;5.73;;;;;;;6.89;64.74;97086.13;5031805;28;20186;-66
2024/02/21 02:10:39;;;;;;;10.67;7.00;;;;;;;6.81;64.68;97088.03;5049438;28;20427;-67
2024/02/21 02:13:05;;;;;;;9.27;6.27;;;;;;;6.99;64.25;97080.72;5049615;28;20420;-67
2024/02/21 02:15:48;;;;;;;11.20;6.40;;;;;;;6.82;64.70;97079.31;5049102;28;20440;-67
2024/02/21 02:18:14;;;;;;;9.50;6.50;;;;;;;6.86;64.50;97084.44;5048740;28;20598;-68
2024/02/21 02:20:40;;;;;;;11.90;6.87;;;;;;;6.79;64.89;97078.47;5048911;28;20438;-67
2024/02/21 02:23:14;;;;;;;15.80;6.60;;;;;;;6.87;64.27;97077.47;5049208;28;20445;-67
2024/02/21 02:25:40;;;;;;;10.97;6.60;;;;;;;6.98;64.06;97076.38;5048828;28;20643;-67
2024/02/21 02:28:06;;;;;;;10.90;5.43;;;;;;;6.94;64.66;97079.06;5035595;28;20426;-68
2024/02/21 02:30:38;;;;;;;9.03;5.97;;;;;;;6.89;64.77;97075.69;5049334;28;20202;-67
2024/02/21 02:33:04;;;;;;;11.57;6.40;;;;;;;6.99;64.39;97067.69;5049677;28;20424;-68
2024/02/21 02:35:30;;;;;;;9.80;6.47;;;;;;;7.04;64.59;97053.66;5049546;28;20920;-68
2024/02/21 02:37:56;;;;;;;11.57;5.90;;;;;;;6.88;64.55;97050.50;5049217;28;20421;-68
2024/02/21 02:40:21;;;;;;;8.73;5.90;;;;;;;6.87;64.82;97047.00;5048832;28;20706;-67
2024/02/21 02:42:48;;;;;;;7.70;6.10;;;;;;;6.89;64.32;97042.63;5049267;28;20175;-67
2024/02/21 02:45:15;;;;;;;10.63;6.73;;;;;;;6.69;65.82;97048.22;5049039;28;20170;-69
2024/02/21 02:47:40;;;;;;;8.97;6.40;;;;;;;6.71;65.52;97051.69;5048357;28;20835;-67
2024/02/21 02:50:07;;;;;;;9.53;6.20;;;;;;;6.75;65.35;97042.88;5048038;28;20455;-67
2024/02/21 02:52:32;;;;;;;10.10;6.00;;;;;;;6.84;65.35;97052.28;5029913;28;20181;-68
2024/02/21 02:54:58;;;;;;;10.13;7.03;;;;;;;6.90;64.73;97052.19;5048069;28;20421;-69
2024/02/21 02:57:23;;;;;;;11.37;5.90;;;;;;;7.00;64.19;97048.50;5048006;28;20175;-69
2024/02/21 02:59:50;;;;;;;13.63;6.40;;;;;;;7.01;64.59;97046.75;5047763;28;20199;-68
2024/02/21 03:02:15;;;;;;;11.13;6.53;;;;;;;6.90;64.94;97036.53;5048176;28;20171;-67
2024/02/21 03:04:41;;;;;;;8.33;5.77;;;;;;;6.89;64.84;97034.81;5048209;28;20409;-68
2024/02/21 03:07:06;;;;;;;9.83;5.70;;;;;;;6.95;64.21;97033.84;5047796;28;20171;-69
2024/02/21 03:09:32;;;;;;;11.27;6.90;;;;;;;6.96;64.31;97025.97;5029325;28;20209;-68
2024/02/21 03:12:02;;;;;;;11.20;5.63;;;;;;;6.95;64.75;97026.88;5046456;28;20227;-68
2024/02/21 03:14:28;;;;;;;14.20;6.10;;;;;;;6.96;64.14;97020.75;5047000;28;20266;-69
2024/02/21 03:16:54;;;;;;;9.87;6.10;;;;;;;6.85;63.87;97014.91;5046126;28;21275;-67
2024/02/21 03:19:20;;;;;;;9.10;6.20;;;;;;;6.89;63.89;97015.69;5046739;28;20457;-68
2024/02/21 03:21:45;;;;;;;8.50;6.20;;;;;;;7.06;63.54;97020.56;5046685;28;20163;-68
2024/02/21 03:24:10;;;;;;;8.40;4.90;;;;;;;6.93;64.30;97018.22;5046999;28;20805;-67
2024/02/21 03:26:36;;;;;;;12.00;6.43;;;;;;;6.94;64.01;97019.91;5046383;28;20174;-68
2024/02/21 03:29:01;;;;;;;9.07;6.00;;;;;;;6.66;64.98;97017.00;5046708;28;20561;-69
2024/02/21 03:31:27;;;;;;;9.00;5.13;;;;;;;6.71;64.76;97019.53;5046474;28;20181;-68
2024/02/21 03:33:52;;;;;;;9.67;5.50;;;;;;;6.82;64.42;97027.13;5028559;28;20225;-69
2024/02/21 03:36:18;;;;;;;5.23;4.73;;;;;;;6.87;64.22;97017.47;5046465;28;20182;-69
2024/02/21 03:38:43;;;;;;;10.07;5.63;;;;;;;6.91;64.19;97012.16;5046686;28;20194;-68
2024/02/21 03:41:09;;;;;;;7.23;5.17;;;;;;;6.99;64.15;97004.16;5046812;28;20170;-67
2024/02/21 03:43:34;;;;;;;9.07;4.87;;;;;;;6.90;64.28;97014.81;5047028;28;20179;-69
2024/02/21 03:45:59;;;;;;;13.40;7.03;;;;;;;6.92;63.71;97005.19;5048770;28;20178;-69
2024/02/21 03:48:25;;;;;;;8.13;7.33;;;;;;;6.99;63.97;96994.63;5055912;28;20218;-68
2024/02/21 03:50:50;;;;;;;9.87;5.50;;;;;;;6.90;64.25;96986.97;5053238;28;20194;-69
2024/02/21 03:53:16;;;;;;;8.57;6.07;;;;;;;6.85;64.10;96973.16;5053818;28;20181;-68
2024/02/21 03:55:41;;;;;;;8.07;5.00;;;;;;;6.67;64.96;96978.72;5052942;28;20193;-68
2024/02/21 03:58:07;;;;;;;7.27;4.73;;;;;;;6.72;65.05;96979.50;5046614;28;20249;-68
2024/02/21 04:00:32;;;;;;;6.77;4.70;;;;;;;6.85;64.18;96986.19;5045685;28;20659;-69
2024/02/21 04:02:57;;;;;;;6.73;5.13;;;;;;;6.83;64.20;96995.81;5046094;28;20253;-69
2024/02/21 04:05:24;;;;;;;15.27;5.47;;;;;;;6.78;64.86;96987.22;5045977;28;20178;-68
2024/02/21 04:07:51;;;;;;;8.23;5.20;;;;;;;6.88;64.32;96986.13;5046225;28;20643;-67
2024/02/21 04:10:16;;;;;;;12.97;5.30;;;;;;;6.84;64.49;96981.84;5045827;28;20578;-67
2024/02/21 04:12:42;;;;;;;8.00;5.20;;;;;;;6.92;63.98;96977.38;5046572;28;20508;-67
2024/02/21 04:15:08;;;;;;;5.87;5.03;;;;;;;6.89;64.45;96979.16;5046378;28;20175;-67
2024/02/21 04:17:33;;;;;;;8.73;5.93;;;;;;;6.87;64.70;96968.75;5046224;28;20644;-68
2024/02/21 04:20:05;;;;;;;8.07;5.40;;;;;;;6.76;64.89;96965.50;5046411;28;20453;-68
2024/02/21 04:22:32;;;;;;;9.50;5.40;;;;;;;6.77;64.91;96962.00;5046560;28;20752;-68
2024/02/21 04:24:59;;;;;;;9.17;5.30;;;;;;;6.76;64.84;96955.94;5045944;28;20402;-68
2024/02/21 04:27:24;;;;;;;9.17;5.10;;;;;;;6.86;64.77;96964.44;5029510;28;20409;-69
2024/02/21 04:29:50;;;;;;;11.20;7.50;;;;;;;6.87;64.55;96957.47;5050369;28;20432;-66
2024/02/21 04:32:15;;;;;;;9.70;4.30;;;;;;;6.85;64.88;96946.19;5050581;28;20503;-67
2024/02/21 04:34:41;;;;;;;6.83;4.77;;;;;;;6.85;64.57;96949.69;5050061;28;20167;-69
2024/02/21 04:37:07;;;;;;;6.87;5.17;;;;;;;6.87;64.37;96934.81;5049661;28;20582;-68
2024/02/21 04:39:32;;;;;;;4.67;4.23;;;;;;;6.72;64.89;96929.94;5049299;28;20457;-68
2024/02/21 04:41:58;;;;;;;10.10;5.30;;;;;;;6.76;64.65;96931.59;5049347;28;20174;-68
2024/02/21 04:44:23;;;;;;;7.70;4.20;;;;;;;6.65;65.09;96925.75;5049333;28;20181;-68
2024/02/21 04:46:49;;;;;;;6.50;4.80;;;;;;;6.71;65.26;96936.06;5048849;28;20240;-68
2024/02/21 04:49:14;;;;;;;7.37;4.93;;;;;;;6.67;65.53;96935.25;5049478;28;20278;-68
2024/02/21 04:51:40;;;;;;;7.57;5.20;;;;;;;6.69;65.08;96941.28;5048980;28;20926;-69
2024/02/21 04:54:06;;;;;;;9.70;5.27;;;;;;;6.73;65.37;96944.69;5048857;28;20174;-68
2024/02/21 04:56:31;;;;;;;7.10;4.97;;;;;;;6.89;64.58;96935.66;5049229;28;20414;-69
2024/02/21 04:58:57;;;;;;;8.63;5.00;;;;;;;6.74;65.64;96925.56;5050243;28;20201;-68
2024/02/21 05:01:22;;;;;;;8.60;4.97;;;;;;;6.85;64.75;96914.88;5048798;28;20175;-68
2024/02/21 05:03:48;;;;;;;10.03;5.90;;;;;;;6.92;64.72;96919.97;5048748;28;20364;-69
2024/02/21 05:06:13;;;;;;;5.37;4.53;;;;;;;6.94;64.59;96906.88;5049200;28;20232;-69
2024/02/21 05:08:40;;;;;;;12.73;5.03;;;;;;;6.88;64.73;96900.03;5048655;28;20568;-68
2024/02/21 05:11:05;;;;;;;10.23;5.07;;;;;;;6.95;64.95;96899.00;5048714;28;20222;-69
2024/02/21 05:13:31;;;;;;;9.60;5.00;;;;;;;6.85;65.10;96892.28;5048508;28;20421;-69
2024/02/21 05:15:56;;;;;;;9.23;5.23;;;;;;;6.90;64.76;96880.00;5048841;28;20170;-68
2024/02/21 05:18:21;;;;;;;7.33;5.03;;;;;;;6.75;65.60;96867.28;5048477;28;20549;-68
2024/02/21 05:20:47;;;;;;;10.63;5.60;;;;;;;6.64;65.90;96867.50;5047978;28;20557;-68
2024/02/21 05:23:12;;;;;;;8.70;5.07;;;;;;;6.76;65.60;96874.22;5030933;28;20729;-68
2024/02/21 05:25:37;;;;;;;5.47;4.67;;;;;;;6.76;66.04;96872.47;5027171;28;20190;-68
2024/02/21 05:28:05;;;;;;;7.70;6.13;;;;;;;6.66;65.70;96870.06;5035190;28;21066;-67
2024/02/21 05:30:31;;;;;;;9.27;4.57;;;;;;;6.56;66.44;96864.19;5048231;28;20195;-68
2024/02/21 05:32:56;;;;;;;7.80;4.97;;;;;;;6.73;66.07;96866.44;5047574;28;20420;-68
2024/02/21 05:35:28;;;;;;;7.27;5.10;;;;;;;6.64;66.28;96864.03;5047943;28;20179;-68
2024/02/21 05:37:54;;;;;;;9.50;6.10;;;;;;;6.63;66.55;96860.56;5048547;28;20190;-69
2024/02/21 05:40:19;;;;;;;8.60;5.60;;;;;;;6.62;66.55;96858.84;5047498;28;20457;-68
2024/02/21 05:42:44;;;;;;;9.07;5.60;;;;;;;6.62;66.41;96863.22;5048796;28;20189;-68
2024/02/21 05:45:10;;;;;;;5.00;4.60;;;;;;;6.58;66.79;96868.47;5049378;28;20241;-68
2024/02/21 05:47:35;;;;;;;10.43;5.50;;;;;;;6.57;66.58;96866.78;5048605;28;20182;-67
2024/02/21 05:50:01;;;;;;;6.07;4.40;;;;;;;6.76;65.96;96866.41;5049169;28;20241;-68
2024/02/21 05:52:26;;;;;;;9.73;5.03;;;;;;;6.68;66.35;96856.09;5051789;28;20194;-68
2024/02/21 05:54:51;;;;;;;11.67;6.77;;;;;;;6.68;66.51;96868.28;5063232;28;20182;-70
2024/02/21 05:57:18;;;;;;;17.80;7.07;;;;;;;6.69;66.53;96870.03;5065869;28;20189;-67
2024/02/21 05:59:43;;;;;;;13.50;5.90;;;;;;;6.71;66.17;96874.31;5065853;28;20212;-67
2024/02/21 06:02:09;;;;;;;8.00;5.23;;;;;;;6.67;66.12;96867.44;5065252;28;20877;-69
2024/02/21 06:04:34;;;;;;;9.77;5.47;;;;;;;6.62;66.53;96884.09;5064456;28;20307;-68
2024/02/21 06:07:00;;;;;;;8.27;5.33;;;;;;;6.51;66.73;96877.31;5054050;28;20188;-69
2024/02/21 06:09:25;;;;;;;6.23;4.90;;;;;;;6.57;66.86;96877.19;5045351;28;20187;-66
2024/02/21 06:11:51;;;;;;;9.87;4.90;;;;;;;6.65;66.61;96865.75;5051534;28;20227;-67
2024/02/21 06:14:16;;;;;;;10.03;6.07;;;;;;;6.86;65.54;96869.66;5040896;28;20735;-69
2024/02/21 06:16:43;;;;;;;11.97;6.30;;;;;;;6.87;65.40;96867.00;5034876;28;20179;-69
2024/02/21 06:19:09;;;;;;;9.77;6.37;;;;;;;6.76;66.19;96875.06;5035668;28;20209;-69
2024/02/21 06:21:35;;;;;;;11.10;6.17;;;;;;;6.75;66.22;96875.94;5036899;28;20925;-67
2024/02/21 06:24:00;;;;;;;17.53;5.37;;;;;;;6.89;65.64;96865.22;5047461;28;20183;-68
2024/02/21 06:26:26;;;;;;;7.70;5.00;;;;;;;6.79;65.78;96856.75;5047567;28;20297;-68
2024/02/21 06:28:51;;;;;;;10.90;5.97;;;;;;;6.85;65.22;96855.78;5033917;28;20218;-68
2024/02/21 06:31:17;;;;;;;14.13;5.73;;;;;;;6.85;65.44;96834.91;5037042;28;20636;-65
2024/02/21 06:33:43;;;;;;;9.47;5.50;;;;;;;6.86;65.22;96826.16;5043164;28;20179;-69
2024/02/21 06:36:08;;;;;;;12.77;7.47;;;;;;;6.81;65.45;96842.81;5043046;28;20464;-68
2024/02/21 06:38:36;;;;;;;9.03;6.77;;;;;;;6.96;64.89;96845.06;5049886;28;20247;-70
2024/02/21 06:41:02;;;;;;;12.87;5.87;;;;;;;6.93;64.87;96860.81;5057329;28;20183;-68
2024/02/21 06:43:28;;;;;;;13.03;6.00;;;;;;;7.42;63.43;96863.16;5057594;28;20428;-69
2024/02/21 06:45:54;;;;;;;12.17;6.93;;;;;;;8.55;60.42;96868.06;5058555;28;20443;-67
2024/02/21 06:48:19;;;;;;;8.10;5.50;;;;;;;9.43;56.90;96867.19;5067177;28;20182;-68
2024/02/21 06:50:45;;;;;;;11.60;6.90;;;;;;;9.90;54.79;96846.41;5047092;28;20294;-64
2024/02/21 06:53:10;;;;;;;6.67;4.83;;;;;;;10.32;53.40;96850.22;5051937;28;20174;-68
2024/02/21 06:55:35;;;;;;;8.30;5.50;;;;;;;11.20;51.41;96845.22;5041237;28;20713;-69
2024/02/21 06:58:01;;;;;;;12.53;9.20;;;;;;;11.54;49.80;96839.44;5049570;28;20189;-68
2024/02/21 07:00:28;;;;;;;11.90;6.77;;;;;;;11.89;49.31;96829.28;5055876;28;20866;-68
2024/02/21 07:02:54;;;;;;;10.00;7.43;;;;;;;12.20;47.78;96822.72;5055099;28;20187;-67
2024/02/21 07:05:19;;;;;;;12.83;7.30;;;;;;;13.01;46.18;96815.53;5048712;28;20420;-68
2024/02/21 07:07:45;;;;;;;23.50;7.30;;;;;;;13.23;44.78;96821.53;5052372;28;20171;-65
2024/02/21 07:10:11;;;;;;;21.43;7.87;;;;;;;13.81;43.46;96819.63;5051287;28;20198;-67
2024/02/21 07:12:41;;;;;;;14.83;7.93;;;;;;;14.53;42.07;96815.94;5049345;28;20186;-67
2024/02/21 07:15:07;;;;;;;9.10;6.83;;;;;;;14.38;41.97;96821.06;5056743;28;20979;-67
2024/02/21 07:17:33;;;;;;;12.90;6.40;;;;;;;14.50;41.84;96809.00;5054738;28;20620;-69
2024/02/21 07:19:59;;;;;;;10.47;6.73;;;;;;;14.47;41.92;96803.88;5048626;28;20207;-66
2024/02/21 07:22:24;;;;;;;10.80;5.90;;;;;;;15.75;39.63;96792.44;5049618;28;20232;-68
2024/02/21 07:24:50;;;;;;;14.10;6.23;;;;;;;15.53;39.44;96778.72;5046065;28;20402;-68
2024/02/21 07:27:15;;;;;;;8.10;6.10;;;;;;;15.60;39.47;96794.16;5054690;28;20863;-66
2024/02/21 07:29:41;;;;;;;8.47;5.80;;;;;;;15.67;39.11;96794.66;5046596;28;20190;-67
2024/02/21 07:32:07;;;;;;;19.37;6.53;;;;;;;16.18;38.33;96792.56;5045924;28;20855;-69
2024/02/21 07:34:32;;;;;;;7.77;6.30;;;;;;;15.76;38.88;96794.16;5047825;28;20187;-68
2024/02/21 07:36:57;;;;;;;11.83;6.47;;;;;;;15.87;38.81;96790.84;5045531;28;20624;-65
2024/02/21 07:39:23;;;;;;;13.10;6.43;;;;;;;15.99;38.55;96799.88;5052183;28;20203;-66
2024/02/21 07:41:49;;;;;;;11.03;6.87;;;;;;;16.46;37.66;96798.81;5046187;28;20179;-66
2024/02/21 07:44:15;;;;;;;13.60;5.20;;;;;;;16.79;37.09;96789.75;5046034;28;20633;-69
2024/02/21 07:46:41;;;;;;;11.20;5.20;;;;;;;16.56;36.93;96794.66;5046043;28;20178;-69
2024/02/21 07:49:06;;;;;;;6.93;4.57;;;;;;;16.69;36.89;96785.00;5051714;28;20433;-66
2024/02/21 07:51:31;;;;;;;8.03;4.60;;;;;;;16.73;36.59;96777.72;5047653;28;20177;-69
2024/02/21 07:53:57;;;;;;;8.27;5.57;;;;;;;17.37;35.55;96767.47;5039952;28;20193;-67
2024/02/21 07:56:22;;;;;;;8.93;5.13;;;;;;;17.68;34.99;96766.31;5045634;28;20186;-67
2024/02/21 07:58:48;;;;;;;10.13;5.40;;;;;;;18.44;33.37;96766.53;5042021;28;20209;-67
2024/02/21 08:01:22;;;;;;;9.90;4.53;;;;;;;17.87;34.43;96773.06;5045701;28;20886;-65
2024/02/21 08:03:47;;;;;;;7.80;4.70;;;;;;;17.51;35.01;96770.09;5042834;28;20192;-67
2024/02/21 08:06:13;;;;;;;6.77;4.37;;;;;;;18.09;34.00;96753.88;5037196;28;20438;-66
2024/02/21 08:08:39;;;;;;;6.10;4.77;;;;;;;17.69;34.60;96768.03;5045211;28;20171;-67
2024/02/21 08:11:04;;;;;;;7.80;5.00;;;;;;;17.63;34.71;96765.75;5043044;28;20267;-66
2024/02/21 08:13:30;;;;;;;11.43;6.17;;;;;;;18.47;33.64;96763.66;5045918;28;20174;-68
2024/02/21 08:15:57;;;;;;;6.37;5.33;;;;;;;18.19;33.79;96755.81;5044741;28;20365;-69
2024/02/21 08:18:22;;;;;;;8.63;5.87;;;;;;;18.64;33.31;96747.41;5047713;28;20704;-68
2024/02/21 08:20:47;;;;;;;13.77;5.10;;;;;;;18.25;33.50;96745.72;5046793;28;20532;-68
2024/02/21 08:23:16;;;;;;;9.33;5.97;;;;;;;18.26;33.93;96747.41;5046313;28;20182;-66
2024/02/21 08:25:41;;;;;;;8.57;5.43;;;;;;;17.86;34.55;96737.72;5047311;28;20186;-68
2024/02/21 08:28:07;;;;;;;15.50;6.17;;;;;;;17.22;35.54;96737.50;5047714;28;20418;-68
2024/02/21 08:30:33;;;;;;;17.33;5.13;;;;;;;18.50;39.04;96732.41;5044442;28;20964;-67
2024/02/21 08:32:58;;;;;;;15.70;5.10;;;;;;;18.92;36.48;96729.47;5028752;28;20429;-66
2024/02/21 08:35:23;;;;;;;9.10;5.20;;;;;;;17.05;36.16;96729.78;5048508;28;20194;-69
2024/02/21 08:37:49;;;;;;;11.83;6.23;;;;;;;16.30;37.37;96720.31;5028233;28;20193;-65
2024/02/21 08:40:17;;;;;;;11.73;5.13;;;;;;;15.95;38.72;96735.69;5045600;28;20199;-66
2024/02/21 08:42:43;;;;;;;7.80;5.03;;;;;;;15.49;39.43;96734.88;5047181;28;20175;-69
2024/02/21 08:45:09;;;;;;;13.70;6.57;;;;;;;15.31;39.95;96729.72;5046763;28;20989;-71
2024/02/21 08:47:35;;;;;;;7.37;5.07;;;;;;;15.01;40.49;96727.88;5046380;28;20694;-68
2024/02/21 08:50:01;;;;;;;8.47;4.93;;;;;;;14.84;40.81;96738.53;5046544;28;20195;-69
2024/02/21 08:52:27;;;;;;;6.50;5.00;;;;;;;15.22;40.38;96738.16;5046434;28;20501;-66
2024/02/21 08:54:53;;;;;;;7.80;5.47;;;;;;;14.81;40.92;96743.97;5046508;28;20559;-67
2024/02/21 08:57:19;;;;;;;17.40;6.23;;;;;;;14.91;40.44;96734.63;5046156;28;20181;-70
2024/02/21 08:59:44;;;;;;;10.83;4.80;;;;;;;14.80;41.05;96737.00;5046966;28;20461;-69
2024/02/21 09:02:10;;;;;;;8.80;5.00;;;;;;;15.08;40.24;96730.19;5047525;28;20793;-68
2024/02/21 09:04:35;;;;;;;7.27;4.20;;;;;;;14.93;40.72;96724.81;5047634;28;20236;-69
2024/02/21 09:07:01;;;;;;;6.67;4.07;;;;;;;15.00;40.48;96714.72;5046798;28;20221;-69
2024/02/21 09:09:28;;;;;;;9.63;4.53;;;;;;;14.90;40.72;96714.41;5046255;28;20194;-66
2024/02/21 09:11:53;;;;;;;8.73;4.57;;;;;;;14.72;41.06;96716.28;5046291;28;20178;-66
2024/02/21 09:14:19;;;;;;;5.53;3.90;;;;;;;14.40;41.58;96715.38;5047107;28;20406;-68
2024/02/21 09:16:44;;;;;;;6.13;3.73;;;;;;;14.36;41.94;96717.34;5049835;28;20171;-68
2024/02/21 09:19:11;;;;;;;6.50;3.87;;;;;;;14.00;42.83;96717.50;5050394;28;20701;-66
2024/02/21 09:21:37;;;;;;;5.03;3.90;;;;;;;14.06;42.78;96716.34;5050230;28;20187;-67
2024/02/21 09:24:03;;;;;;;7.33;4.50;;;;;;;13.93;43.17;96716.94;5050666;28;20405;-68
2024/02/21 09:26:28;;;;;;;7.40;4.40;;;;;;;13.79;43.22;96708.06;5050649;28;20420;-68
2024/02/21 09:28:54;;;;;;;5.27;4.00;;;;;;;13.74;43.87;96701.22;5050267;28;20191;-68
2024/02/21 09:31:19;;;;;;;6.87;3.90;;;;;;;13.53;43.84;96694.41;5045329;28;20233;-67
2024/02/21 09:33:45;;;;;;;5.30;3.60;;;;;;;13.52;44.50;96696.22;5046022;28;20702;-69
2024/02/21 09:36:10;;;;;;;12.10;4.63;;;;;;;13.41;45.05;96695.91;5049367;28;20187;-69
2024/02/21 09:38:36;;;;;;;3.83;3.53;;;;;;;13.48;43.89;96693.81;5049210;28;20730;-67
2024/02/21 09:41:19;;;;;;;4.93;3.40;;;;;;;13.46;44.38;96695.66;5049129;28;20537;-69
2024/02/21 09:43:47;;;;;;;8.50;4.27;;;;;;;13.31;44.46;96686.75;5039043;28;20171;-67
2024/02/21 09:46:18;;;;;;;7.07;4.70;;;;;;;13.30;44.21;96680.63;5042014;28;20413;-65
2024/02/21 09:48:53;;;;;;;6.00;4.20;;;;;;;13.06;45.45;96684.44;5047463;28;20442;-70
2024/02/21 09:51:19;;;;;;;5.43;3.50;;;;;;;12.88;45.29;96684.41;5041708;28;20867;-66
2024/02/21 09:53:45;;;;;;;6.27;4.10;;;;;;;12.89;45.81;96672.94;5048466;28;21215;-67
2024/02/21 09:56:11;;;;;;;10.17;4.57;;;;;;;12.86;46.24;96677.53;5041437;28;21227;-68
2024/02/21 09:58:38;;;;;;;6.83;4.80;;;;;;;12.91;46.13;96680.78;5050070;28;20463;-66
2024/02/21 10:01:06;;;;;;;6.60;3.70;;;;;;;12.88;46.99;96683.56;5049922;28;20421;-67
2024/02/21 10:03:33;;;;;;;4.53;3.43;;;;;;;12.96;47.01;96664.75;5047323;28;20429;-68
2024/02/21 10:06:00;;;;;;;6.33;3.80;;;;;;;12.90;47.06;96661.50;5051934;28;20426;-68
2024/02/21 10:08:26;;;;;;;6.63;3.90;;;;;;;12.77;46.88;96665.66;5050216;28;20510;-67
2024/02/21 10:10:56;;;;;;;5.20;3.60;;;;;;;12.86;47.35;96659.94;5031349;28;20449;-67
2024/02/21 10:13:30;;;;;;;6.43;3.80;;;;;;;12.93;46.25;96655.22;5048580;28;20215;-67
2024/02/21 10:16:06;;;;;;;9.33;4.17;;;;;;;13.02;46.69;96656.56;5047811;28;20425;-66
2024/02/21 10:18:35;;;;;;;5.70;3.83;;;;;;;13.12;46.33;96653.38;5048400;28;20727;-67
2024/02/21 10:21:06;;;;;;;6.80;5.17;;;;;;;13.17;45.87;96647.88;5048489;28;20417;-67
2024/02/21 10:23:42;;;;;;;8.63;4.80;;;;;;;13.44;45.84;96642.16;5048684;28;20405;-68
2024/02/21 10:26:07;;;;;;;5.77;3.40;;;;;;;13.51;45.30;96638.28;5049913;28;20405;-69
2024/02/21 10:28:33;;;;;;;4.93;3.20;;;;;;;13.67;44.72;96640.97;5045171;28;20483;-66
2024/02/21 10:30:58;;;;;;;7.80;3.33;;;;;;;13.61;45.02;96633.41;5048289;28;20194;-67
2024/02/21 10:33:25;;;;;;;5.90;3.50;;;;;;;13.70;44.80;96625.84;5048169;28;20800;-66
2024/02/21 10:35:51;;;;;;;6.87;3.60;;;;;;;13.81;44.15;96620.00;5047494;28;20199;-68
2024/02/21 10:38:16;;;;;;;10.63;3.80;;;;;;;13.78;44.25;96612.25;5034757;28;20556;-67
2024/02/21 10:40:42;;;;;;;4.30;3.70;;;;;;;13.47;44.57;96607.75;5049669;28;20239;-66
2024/02/21 10:43:13;;;;;;;7.60;2.87;;;;;;;13.81;44.14;96606.81;5043764;28;20182;-69
2024/02/21 10:45:39;;;;;;;5.53;3.27;;;;;;;13.90;43.34;96594.91;5047523;28;20174;-66
2024/02/21 10:48:15;;;;;;;13.93;4.73;;;;;;;14.00;43.14;96595.28;5047640;28;20906;-68
2024/02/21 10:51:00;;;;;;;23.00;6.20;;;;;;;13.97;43.09;96596.28;5046267;28;20948;-67
2024/02/21 10:53:48;;;;;;;8.90;3.20;;;;;;;14.34;42.80;96594.28;5043496;28;20524;-67
2024/02/21 10:56:26;;;;;;;6.97;3.00;;;;;;;14.21;43.00;96590.59;5045991;28;20413;-67
2024/02/21 10:58:52;;;;;;;8.47;2.53;;;;;;;14.30;41.99;96584.81;5046894;28;20455;-68
2024/02/21 11:01:19;;;;;;;4.33;2.57;;;;;;;14.48;41.63;96582.91;5046630;28;20587;-66
2024/02/21 11:03:49;;;;;;;5.07;2.73;;;;;;;14.48;41.46;96588.19;5046854;28;20406;-66
2024/02/21 11:06:17;;;;;;;6.97;2.57;;;;;;;14.46;41.08;96583.03;5045942;28;20461;-66
2024/02/21 11:08:42;;;;;;;28.67;4.20;;;;;;;14.31;41.26;96578.59;5047428;28;20748;-69
2024/02/21 11:11:08;;;;;;;17.83;3.30;;;;;;;14.33;40.97;96574.91;5046125;28;20449;-65
2024/02/21 11:13:37;;;;;;;4.13;3.00;;;;;;;14.30;40.88;96566.34;5049990;28;20202;-67
2024/02/21 11:16:10;;;;;;;8.57;2.67;;;;;;;14.20;41.60;96560.72;5040377;28;20449;-68
2024/02/21 11:18:39;;;;;;;6.77;3.67;;;;;;;14.57;41.08;96556.91;5043373;28;20414;-68
2024/02/21 11:21:04;;;;;;;10.07;3.40;;;;;;;14.75;40.23;96551.47;5050483;28;20417;-68
2024/02/21 11:23:31;;;;;;;6.73;3.13;;;;;;;14.65;40.54;96551.16;5047289;28;20432;-66
2024/02/21 11:26:09;;;;;;;4.03;2.90;;;;;;;14.70;40.28;96538.53;5047125;28;20174;-67
2024/02/21 11:28:37;;;;;;;18.07;5.00;;;;;;;14.63;40.63;96544.28;5040473;28;20469;-67
2024/02/21 11:31:13;;;;;;;42.00;6.20;;;;;;;14.58;40.32;96526.03;5044581;28;20418;-70